sensor_id;sensor_type;location;lat;lon;timestamp;P1;durP1;ratioP1;P2;durP2;ratioP2
84303;SDS011;74469;52.520;16.998;2023-12-04T00:01:58;20.80;;;9.30;;
84303;SDS011;74469;52.520;16.998;2023-12-04T00:04:25;17.40;;;8.90;;
84303;SDS011;74469;52.520;16.998;2023-12-04T00:06:53;19.20;;;8.70;;
84303;SDS011;74469;52.520;16.998;2023-12-04T00:09:21;18.00;;;7.00;;
84303;SDS011;74469;52.520;16.998;2023-12-04T00:11:51;21.10;;;10.00;;
84303;SDS011;74469;52.520;16.998;2023-12-04T00:14:19;16.70;;;6.10;;
84303;SDS011;74469;52.520;16.998;2023-12-04T00:16:47;11.90;;;5.60;;
84303;SDS011;74469;52.520;16.998;2023-12-04T00:19:14;12.10;;;5.90;;
84303;SDS011;74469;52.520;16.998;2023-12-04T00:21:42;15.00;;;7.20;;
84303;SDS011;74469;52.520;16.998;2023-12-04T00:24:10;18.50;;;8.10;;
84303;SDS011;74469;52.520;16.998;2023-12-04T00:26:37;22.40;;;7.90;;
84303;SDS011;74469;52.520;16.998;2023-12-04T00:29:05;32.30;;;12.00;;
84303;SDS011;74469;52.520;16.998;2023-12-04T00:31:33;28.90;;;11.70;;
84303;SDS011;74469;52.520;16.998;2023-12-04T00:34:00;18.70;;;7.80;;
84303;SDS011;74469;52.520;16.998;2023-12-04T00:36:28;19.80;;;7.80;;
84303;SDS011;74469;52.520;16.998;2023-12-04T00:38:56;18.80;;;6.90;;
84303;SDS011;74469;52.520;16.998;2023-12-04T00:41:23;18.50;;;7.90;;
84303;SDS011;74469;52.520;16.998;2023-12-04T00:43:51;20.80;;;7.70;;
84303;SDS011;74469;52.520;16.998;2023-12-04T00:46:19;19.10;;;7.90;;
84303;SDS011;74469;52.520;16.998;2023-12-04T00:48:47;14.50;;;6.40;;
84303;SDS011;74469;52.520;16.998;2023-12-04T00:51:14;22.10;;;9.40;;
84303;SDS011;74469;52.520;16.998;2023-12-04T00:53:42;13.90;;;6.60;;
84303;SDS011;74469;52.520;16.998;2023-12-04T00:56:10;19.00;;;8.40;;
84303;SDS011;74469;52.520;16.998;2023-12-04T00:58:38;23.10;;;8.90;;
84303;SDS011;74469;52.520;16.998;2023-12-04T01:01:06;24.90;;;10.90;;
84303;SDS011;74469;52.520;16.998;2023-12-04T01:03:33;35.20;;;9.50;;
84303;SDS011;74469;52.520;16.998;2023-12-04T01:06:01;18.70;;;7.50;;
84303;SDS011;74469;52.520;16.998;2023-12-04T01:08:29;16.60;;;7.70;;
84303;SDS011;74469;52.520;16.998;2023-12-04T01:10:57;21.00;;;9.60;;
84303;SDS011;74469;52.520;16.998;2023-12-04T01:13:24;19.00;;;7.40;;
84303;SDS011;74469;52.520;16.998;2023-12-04T01:15:52;13.00;;;5.90;;
84303;SDS011;74469;52.520;16.998;2023-12-04T01:18:20;18.20;;;7.60;;
84303;SDS011;74469;52.520;16.998;2023-12-04T01:20:47;18.60;;;7.90;;
84303;SDS011;74469;52.520;16.998;2023-12-04T01:23:15;22.30;;;8.40;;
84303;SDS011;74469;52.520;16.998;2023-12-04T01:25:42;23.30;;;9.90;;
84303;SDS011;74469;52.520;16.998;2023-12-04T01:28:12;27.30;;;8.60;;
84303;SDS011;74469;52.520;16.998;2023-12-04T01:30:39;18.90;;;8.50;;
84303;SDS011;74469;52.520;16.998;2023-12-04T01:33:07;14.50;;;6.10;;
84303;SDS011;74469;52.520;16.998;2023-12-04T01:35:35;16.60;;;7.10;;
84303;SDS011;74469;52.520;16.998;2023-12-04T01:38:03;14.80;;;6.00;;
84303;SDS011;74469;52.520;16.998;2023-12-04T01:40:31;17.30;;;8.20;;
84303;SDS011;74469;52.520;16.998;2023-12-04T01:42:59;26.10;;;11.50;;
84303;SDS011;74469;52.520;16.998;2023-12-04T01:45:26;15.30;;;5.90;;
84303;SDS011;74469;52.520;16.998;2023-12-04T01:47:54;13.10;;;5.40;;
84303;SDS011;74469;52.520;16.998;2023-12-04T01:50:22;17.40;;;7.50;;
84303;SDS011;74469;52.520;16.998;2023-12-04T01:52:50;18.60;;;8.00;;
84303;SDS011;74469;52.520;16.998;2023-12-04T01:55:19;30.60;;;9.30;;
84303;SDS011;74469;52.520;16.998;2023-12-04T01:57:47;37.80;;;10.90;;
84303;SDS011;74469;52.520;16.998;2023-12-04T02:00:15;23.00;;;8.30;;
84303;SDS011;74469;52.520;16.998;2023-12-04T02:02:43;20.50;;;8.00;;
84303;SDS011;74469;52.520;16.998;2023-12-04T02:05:11;10.60;;;5.20;;
84303;SDS011;74469;52.520;16.998;2023-12-04T02:07:40;9.70;;;5.40;;
84303;SDS011;74469;52.520;16.998;2023-12-04T02:10:08;13.70;;;6.80;;
84303;SDS011;74469;52.520;16.998;2023-12-04T02:12:37;14.60;;;7.10;;
84303;SDS011;74469;52.520;16.998;2023-12-04T02:15:05;17.00;;;8.60;;
84303;SDS011;74469;52.520;16.998;2023-12-04T02:17:33;14.80;;;6.00;;
84303;SDS011;74469;52.520;16.998;2023-12-04T02:20:01;12.90;;;5.20;;
84303;SDS011;74469;52.520;16.998;2023-12-04T02:22:30;11.50;;;4.90;;
84303;SDS011;74469;52.520;16.998;2023-12-04T02:24:58;16.00;;;6.50;;
84303;SDS011;74469;52.520;16.998;2023-12-04T02:27:49;14.90;;;6.50;;
84303;SDS011;74469;52.520;16.998;2023-12-04T02:30:18;17.00;;;6.10;;
84303;SDS011;74469;52.520;16.998;2023-12-04T02:32:46;23.60;;;8.20;;
84303;SDS011;74469;52.520;16.998;2023-12-04T02:35:15;44.40;;;9.60;;
84303;SDS011;74469;52.520;16.998;2023-12-04T02:37:48;35.30;;;8.60;;
84303;SDS011;74469;52.520;16.998;2023-12-04T02:40:16;42.40;;;9.20;;
84303;SDS011;74469;52.520;16.998;2023-12-04T02:42:44;23.70;;;7.80;;
84303;SDS011;74469;52.520;16.998;2023-12-04T02:45:13;19.80;;;7.90;;
84303;SDS011;74469;52.520;16.998;2023-12-04T02:47:40;13.20;;;5.80;;
84303;SDS011;74469;52.520;16.998;2023-12-04T02:50:08;14.80;;;6.30;;
84303;SDS011;74469;52.520;16.998;2023-12-04T02:52:36;14.00;;;5.80;;
84303;SDS011;74469;52.520;16.998;2023-12-04T02:55:04;13.70;;;6.80;;
84303;SDS011;74469;52.520;16.998;2023-12-04T02:57:32;13.40;;;5.30;;
84303;SDS011;74469;52.520;16.998;2023-12-04T03:00:00;12.80;;;6.00;;
84303;SDS011;74469;52.520;16.998;2023-12-04T03:02:27;13.50;;;6.30;;
84303;SDS011;74469;52.520;16.998;2023-12-04T03:04:55;16.80;;;7.00;;
84303;SDS011;74469;52.520;16.998;2023-12-04T03:07:23;13.70;;;5.20;;
84303;SDS011;74469;52.520;16.998;2023-12-04T03:09:51;21.90;;;9.10;;
84303;SDS011;74469;52.520;16.998;2023-12-04T03:12:19;14.90;;;6.40;;
84303;SDS011;74469;52.520;16.998;2023-12-04T03:14:47;19.40;;;7.40;;
84303;SDS011;74469;52.520;16.998;2023-12-04T03:17:14;35.10;;;8.40;;
84303;SDS011;74469;52.520;16.998;2023-12-04T03:19:42;34.00;;;10.10;;
84303;SDS011;74469;52.520;16.998;2023-12-04T03:22:10;29.80;;;7.90;;
84303;SDS011;74469;52.520;16.998;2023-12-04T03:24:37;28.90;;;8.50;;
84303;SDS011;74469;52.520;16.998;2023-12-04T03:27:05;24.00;;;8.80;;
84303;SDS011;74469;52.520;16.998;2023-12-04T03:29:33;23.90;;;7.70;;
84303;SDS011;74469;52.520;16.998;2023-12-04T03:32:00;13.10;;;5.70;;
84303;SDS011;74469;52.520;16.998;2023-12-04T03:34:28;13.60;;;6.60;;
84303;SDS011;74469;52.520;16.998;2023-12-04T03:36:56;16.80;;;7.80;;
84303;SDS011;74469;52.520;16.998;2023-12-04T03:39:24;13.60;;;6.20;;
84303;SDS011;74469;52.520;16.998;2023-12-04T03:41:51;18.40;;;7.70;;
84303;SDS011;74469;52.520;16.998;2023-12-04T03:44:19;15.40;;;6.50;;
84303;SDS011;74469;52.520;16.998;2023-12-04T03:46:47;15.60;;;8.40;;
84303;SDS011;74469;52.520;16.998;2023-12-04T03:49:14;17.20;;;7.20;;
84303;SDS011;74469;52.520;16.998;2023-12-04T03:51:42;16.80;;;6.50;;
84303;SDS011;74469;52.520;16.998;2023-12-04T03:54:10;18.50;;;6.90;;
84303;SDS011;74469;52.520;16.998;2023-12-04T03:56:38;37.70;;;12.80;;
84303;SDS011;74469;52.520;16.998;2023-12-04T03:59:05;30.40;;;8.40;;
84303;SDS011;74469;52.520;16.998;2023-12-04T04:01:33;36.20;;;10.40;;
84303;SDS011;74469;52.520;16.998;2023-12-04T04:04:01;27.60;;;10.10;;
84303;SDS011;74469;52.520;16.998;2023-12-04T04:06:28;24.70;;;10.20;;
84303;SDS011;74469;52.520;16.998;2023-12-04T04:08:56;22.80;;;9.30;;
84303;SDS011;74469;52.520;16.998;2023-12-04T04:11:24;20.40;;;7.50;;
84303;SDS011;74469;52.520;16.998;2023-12-04T04:13:52;22.10;;;8.60;;
84303;SDS011;74469;52.520;16.998;2023-12-04T04:16:19;22.40;;;10.50;;
84303;SDS011;74469;52.520;16.998;2023-12-04T04:18:47;19.80;;;8.90;;
84303;SDS011;74469;52.520;16.998;2023-12-04T04:21:14;22.90;;;7.90;;
84303;SDS011;74469;52.520;16.998;2023-12-04T04:23:42;26.90;;;9.70;;
84303;SDS011;74469;52.520;16.998;2023-12-04T04:26:10;21.20;;;7.80;;
84303;SDS011;74469;52.520;16.998;2023-12-04T04:28:37;19.20;;;9.50;;
84303;SDS011;74469;52.520;16.998;2023-12-04T04:31:05;33.40;;;12.60;;
84303;SDS011;74469;52.520;16.998;2023-12-04T04:33:34;32.50;;;11.50;;
84303;SDS011;74469;52.520;16.998;2023-12-04T04:36:01;49.00;;;13.70;;
84303;SDS011;74469;52.520;16.998;2023-12-04T04:38:29;40.90;;;12.90;;
84303;SDS011;74469;52.520;16.998;2023-12-04T04:40:57;38.00;;;11.50;;
84303;SDS011;74469;52.520;16.998;2023-12-04T04:43:25;35.10;;;12.30;;
84303;SDS011;74469;52.520;16.998;2023-12-04T04:45:53;29.70;;;10.90;;
84303;SDS011;74469;52.520;16.998;2023-12-04T04:48:20;21.40;;;9.10;;
84303;SDS011;74469;52.520;16.998;2023-12-04T04:50:48;19.30;;;6.80;;
84303;SDS011;74469;52.520;16.998;2023-12-04T04:53:16;23.50;;;9.50;;
84303;SDS011;74469;52.520;16.998;2023-12-04T04:55:43;21.40;;;9.40;;
84303;SDS011;74469;52.520;16.998;2023-12-04T04:58:11;22.40;;;9.90;;
84303;SDS011;74469;52.520;16.998;2023-12-04T05:00:39;26.40;;;9.80;;
84303;SDS011;74469;52.520;16.998;2023-12-04T05:03:06;23.30;;;8.60;;
84303;SDS011;74469;52.520;16.998;2023-12-04T05:05:34;25.70;;;9.60;;
84303;SDS011;74469;52.520;16.998;2023-12-04T05:08:02;32.30;;;12.00;;
84303;SDS011;74469;52.520;16.998;2023-12-04T05:10:29;22.70;;;8.70;;
84303;SDS011;74469;52.520;16.998;2023-12-04T05:12:57;24.80;;;8.70;;
84303;SDS011;74469;52.520;16.998;2023-12-04T05:15:25;28.90;;;11.10;;
84303;SDS011;74469;52.520;16.998;2023-12-04T05:17:53;53.50;;;14.90;;
84303;SDS011;74469;52.520;16.998;2023-12-04T05:20:20;68.00;;;17.10;;
84303;SDS011;74469;52.520;16.998;2023-12-04T05:22:48;52.30;;;13.80;;
84303;SDS011;74469;52.520;16.998;2023-12-04T05:25:16;39.30;;;12.80;;
84303;SDS011;74469;52.520;16.998;2023-12-04T05:27:44;36.90;;;13.20;;
84303;SDS011;74469;52.520;16.998;2023-12-04T05:30:13;36.10;;;11.70;;
84303;SDS011;74469;52.520;16.998;2023-12-04T05:32:41;30.60;;;12.60;;
84303;SDS011;74469;52.520;16.998;2023-12-04T05:35:08;32.20;;;11.60;;
84303;SDS011;74469;52.520;16.998;2023-12-04T05:37:36;25.00;;;9.70;;
84303;SDS011;74469;52.520;16.998;2023-12-04T05:40:04;26.30;;;10.90;;
84303;SDS011;74469;52.520;16.998;2023-12-04T05:42:33;31.00;;;11.80;;
84303;SDS011;74469;52.520;16.998;2023-12-04T05:45:00;29.60;;;10.40;;
84303;SDS011;74469;52.520;16.998;2023-12-04T05:47:28;25.20;;;10.10;;
84303;SDS011;74469;52.520;16.998;2023-12-04T05:49:56;33.40;;;11.80;;
84303;SDS011;74469;52.520;16.998;2023-12-04T05:52:24;31.50;;;12.40;;
84303;SDS011;74469;52.520;16.998;2023-12-04T05:54:51;41.60;;;14.80;;
84303;SDS011;74469;52.520;16.998;2023-12-04T05:57:19;53.60;;;11.70;;
84303;SDS011;74469;52.520;16.998;2023-12-04T05:59:47;54.50;;;13.20;;
84303;SDS011;74469;52.520;16.998;2023-12-04T06:02:15;43.20;;;13.70;;
84303;SDS011;74469;52.520;16.998;2023-12-04T06:04:43;35.50;;;13.40;;
84303;SDS011;74469;52.520;16.998;2023-12-04T06:07:11;31.30;;;13.60;;
84303;SDS011;74469;52.520;16.998;2023-12-04T06:09:39;30.60;;;13.20;;
84303;SDS011;74469;52.520;16.998;2023-12-04T06:12:06;32.30;;;12.10;;
84303;SDS011;74469;52.520;16.998;2023-12-04T06:14:36;31.20;;;12.10;;
84303;SDS011;74469;52.520;16.998;2023-12-04T06:17:03;32.90;;;13.50;;
84303;SDS011;74469;52.520;16.998;2023-12-04T06:19:33;25.40;;;10.10;;
84303;SDS011;74469;52.520;16.998;2023-12-04T06:22:00;25.80;;;10.20;;
84303;SDS011;74469;52.520;16.998;2023-12-04T06:24:28;19.50;;;8.90;;
84303;SDS011;74469;52.520;16.998;2023-12-04T06:26:56;30.10;;;10.50;;
84303;SDS011;74469;52.520;16.998;2023-12-04T06:29:25;39.10;;;14.00;;
84303;SDS011;74469;52.520;16.998;2023-12-04T06:31:52;40.30;;;13.90;;
84303;SDS011;74469;52.520;16.998;2023-12-04T06:34:21;68.20;;;18.10;;
84303;SDS011;74469;52.520;16.998;2023-12-04T06:36:49;61.80;;;16.70;;
84303;SDS011;74469;52.520;16.998;2023-12-04T06:39:17;65.90;;;15.20;;
84303;SDS011;74469;52.520;16.998;2023-12-04T06:41:45;57.60;;;14.80;;
84303;SDS011;74469;52.520;16.998;2023-12-04T06:44:14;42.80;;;13.50;;
84303;SDS011;74469;52.520;16.998;2023-12-04T06:46:42;44.50;;;12.00;;
84303;SDS011;74469;52.520;16.998;2023-12-04T06:49:11;26.60;;;11.30;;
84303;SDS011;74469;52.520;16.998;2023-12-04T06:51:41;33.00;;;11.80;;
84303;SDS011;74469;52.520;16.998;2023-12-04T06:54:09;34.80;;;14.70;;
84303;SDS011;74469;52.520;16.998;2023-12-04T06:56:36;27.70;;;11.20;;
84303;SDS011;74469;52.520;16.998;2023-12-04T06:59:05;24.70;;;10.00;;
84303;SDS011;74469;52.520;16.998;2023-12-04T07:01:32;20.90;;;8.90;;
84303;SDS011;74469;52.520;16.998;2023-12-04T07:04:00;23.00;;;8.30;;
84303;SDS011;74469;52.520;16.998;2023-12-04T07:06:28;32.20;;;13.00;;
84303;SDS011;74469;52.520;16.998;2023-12-04T07:08:56;30.10;;;10.70;;
84303;SDS011;74469;52.520;16.998;2023-12-04T07:11:23;36.00;;;14.50;;
84303;SDS011;74469;52.520;16.998;2023-12-04T07:13:52;27.20;;;10.70;;
84303;SDS011;74469;52.520;16.998;2023-12-04T07:16:19;28.70;;;10.60;;
84303;SDS011;74469;52.520;16.998;2023-12-04T07:18:47;33.50;;;13.60;;
84303;SDS011;74469;52.520;16.998;2023-12-04T07:21:15;44.10;;;18.90;;
84303;SDS011;74469;52.520;16.998;2023-12-04T07:23:43;54.70;;;19.60;;
84303;SDS011;74469;52.520;16.998;2023-12-04T07:26:10;52.60;;;16.80;;
84303;SDS011;74469;52.520;16.998;2023-12-04T07:28:38;48.90;;;16.70;;
84303;SDS011;74469;52.520;16.998;2023-12-04T07:31:06;45.70;;;13.60;;
84303;SDS011;74469;52.520;16.998;2023-12-04T07:33:34;33.20;;;12.50;;
84303;SDS011;74469;52.520;16.998;2023-12-04T07:36:02;38.20;;;12.20;;
84303;SDS011;74469;52.520;16.998;2023-12-04T07:38:30;28.90;;;12.80;;
84303;SDS011;74469;52.520;16.998;2023-12-04T07:40:57;27.10;;;13.20;;
84303;SDS011;74469;52.520;16.998;2023-12-04T07:43:25;34.20;;;12.60;;
84303;SDS011;74469;52.520;16.998;2023-12-04T07:45:55;28.70;;;11.90;;
84303;SDS011;74469;52.520;16.998;2023-12-04T07:48:23;28.50;;;12.10;;
84303;SDS011;74469;52.520;16.998;2023-12-04T07:50:50;37.50;;;14.20;;
84303;SDS011;74469;52.520;16.998;2023-12-04T07:53:18;36.10;;;14.90;;
84303;SDS011;74469;52.520;16.998;2023-12-04T07:55:46;23.70;;;10.70;;
84303;SDS011;74469;52.520;16.998;2023-12-04T07:58:15;28.50;;;10.30;;
84303;SDS011;74469;52.520;16.998;2023-12-04T08:00:43;43.20;;;18.10;;
84303;SDS011;74469;52.520;16.998;2023-12-04T08:03:11;37.40;;;15.60;;
84303;SDS011;74469;52.520;16.998;2023-12-04T08:05:39;46.00;;;18.70;;
84303;SDS011;74469;52.520;16.998;2023-12-04T08:08:07;63.30;;;22.00;;
84303;SDS011;74469;52.520;16.998;2023-12-04T08:10:34;66.90;;;17.10;;
84303;SDS011;74469;52.520;16.998;2023-12-04T08:13:02;59.10;;;19.90;;
84303;SDS011;74469;52.520;16.998;2023-12-04T08:15:30;51.40;;;16.70;;
84303;SDS011;74469;52.520;16.998;2023-12-04T08:17:58;37.50;;;14.10;;
84303;SDS011;74469;52.520;16.998;2023-12-04T08:20:25;34.40;;;13.80;;
84303;SDS011;74469;52.520;16.998;2023-12-04T08:22:54;32.50;;;13.00;;
84303;SDS011;74469;52.520;16.998;2023-12-04T08:25:22;31.10;;;13.10;;
84303;SDS011;74469;52.520;16.998;2023-12-04T08:27:50;30.10;;;13.00;;
84303;SDS011;74469;52.520;16.998;2023-12-04T08:30:18;45.20;;;17.70;;
84303;SDS011;74469;52.520;16.998;2023-12-04T08:32:46;35.00;;;15.10;;
84303;SDS011;74469;52.520;16.998;2023-12-04T08:35:14;38.10;;;14.80;;
84303;SDS011;74469;52.520;16.998;2023-12-04T08:37:42;41.20;;;15.90;;
84303;SDS011;74469;52.520;16.998;2023-12-04T08:40:10;35.70;;;13.60;;
84303;SDS011;74469;52.520;16.998;2023-12-04T08:42:38;31.70;;;14.30;;
84303;SDS011;74469;52.520;16.998;2023-12-04T08:45:06;32.10;;;13.80;;
84303;SDS011;74469;52.520;16.998;2023-12-04T08:47:36;46.50;;;19.20;;
84303;SDS011;74469;52.520;16.998;2023-12-04T08:50:04;54.10;;;17.10;;
84303;SDS011;74469;52.520;16.998;2023-12-04T08:52:32;50.20;;;19.50;;
84303;SDS011;74469;52.520;16.998;2023-12-04T08:55:00;49.70;;;18.80;;
84303;SDS011;74469;52.520;16.998;2023-12-04T08:57:29;38.10;;;16.20;;
84303;SDS011;74469;52.520;16.998;2023-12-04T08:59:56;33.70;;;15.60;;
84303;SDS011;74469;52.520;16.998;2023-12-04T09:02:24;32.30;;;14.70;;
84303;SDS011;74469;52.520;16.998;2023-12-04T09:04:52;36.80;;;15.40;;
84303;SDS011;74469;52.520;16.998;2023-12-04T09:07:19;30.00;;;14.30;;
84303;SDS011;74469;52.520;16.998;2023-12-04T09:09:47;40.20;;;16.60;;
84303;SDS011;74469;52.520;16.998;2023-12-04T09:12:15;25.70;;;11.60;;
84303;SDS011;74469;52.520;16.998;2023-12-04T09:14:42;40.60;;;17.50;;
84303;SDS011;74469;52.520;16.998;2023-12-04T09:17:10;33.60;;;12.20;;
84303;SDS011;74469;52.520;16.998;2023-12-04T09:19:38;35.60;;;14.80;;
84303;SDS011;74469;52.520;16.998;2023-12-04T09:22:06;38.30;;;15.80;;
84303;SDS011;74469;52.520;16.998;2023-12-04T09:24:34;31.70;;;12.30;;
84303;SDS011;74469;52.520;16.998;2023-12-04T09:27:01;34.40;;;13.30;;
84303;SDS011;74469;52.520;16.998;2023-12-04T09:29:29;28.50;;;11.90;;
84303;SDS011;74469;52.520;16.998;2023-12-04T09:31:57;31.40;;;13.40;;
84303;SDS011;74469;52.520;16.998;2023-12-04T09:34:24;59.20;;;17.20;;
84303;SDS011;74469;52.520;16.998;2023-12-04T09:36:52;58.50;;;19.70;;
84303;SDS011;74469;52.520;16.998;2023-12-04T09:39:20;49.70;;;19.90;;
84303;SDS011;74469;52.520;16.998;2023-12-04T09:41:47;36.50;;;15.90;;
84303;SDS011;74469;52.520;16.998;2023-12-04T09:44:15;31.90;;;14.30;;
84303;SDS011;74469;52.520;16.998;2023-12-04T09:46:43;34.70;;;14.10;;
84303;SDS011;74469;52.520;16.998;2023-12-04T09:49:12;39.20;;;17.70;;
84303;SDS011;74469;52.520;16.998;2023-12-04T09:51:40;40.00;;;16.80;;
84303;SDS011;74469;52.520;16.998;2023-12-04T09:54:08;32.60;;;14.60;;
84303;SDS011;74469;52.520;16.998;2023-12-04T09:56:36;34.10;;;14.90;;
84303;SDS011;74469;52.520;16.998;2023-12-04T09:59:05;34.80;;;14.90;;
84303;SDS011;74469;52.520;16.998;2023-12-04T10:01:33;32.70;;;14.20;;
84303;SDS011;74469;52.520;16.998;2023-12-04T10:04:03;31.10;;;13.50;;
84303;SDS011;74469;52.520;16.998;2023-12-04T10:06:36;45.50;;;19.20;;
84303;SDS011;74469;52.520;16.998;2023-12-04T10:09:05;30.50;;;14.60;;
84303;SDS011;74469;52.520;16.998;2023-12-04T10:11:41;29.60;;;13.10;;
84303;SDS011;74469;52.520;16.998;2023-12-04T10:14:14;25.60;;;12.70;;
84303;SDS011;74469;52.520;16.998;2023-12-04T10:16:43;43.60;;;16.20;;
84303;SDS011;74469;52.520;16.998;2023-12-04T10:21:45;43.80;;;16.50;;
84303;SDS011;74469;52.520;16.998;2023-12-04T10:26:56;29.40;;;12.30;;
84303;SDS011;74469;52.520;16.998;2023-12-04T10:29:26;38.40;;;16.30;;
84303;SDS011;74469;52.520;16.998;2023-12-04T10:31:55;27.60;;;13.70;;
84303;SDS011;74469;52.520;16.998;2023-12-04T10:34:25;31.60;;;14.50;;
84303;SDS011;74469;52.520;16.998;2023-12-04T10:36:53;28.20;;;15.00;;
84303;SDS011;74469;52.520;16.998;2023-12-04T10:39:21;33.20;;;15.80;;
84303;SDS011;74469;52.520;16.998;2023-12-04T10:41:58;27.30;;;12.00;;
84303;SDS011;74469;52.520;16.998;2023-12-04T10:44:28;28.90;;;12.90;;
84303;SDS011;74469;52.520;16.998;2023-12-04T10:46:57;30.00;;;13.80;;
84303;SDS011;74469;52.520;16.998;2023-12-04T10:49:28;37.50;;;14.40;;
84303;SDS011;74469;52.520;16.998;2023-12-04T10:51:56;23.00;;;10.70;;
84303;SDS011;74469;52.520;16.998;2023-12-04T10:54:27;28.70;;;13.80;;
84303;SDS011;74469;52.520;16.998;2023-12-04T10:56:56;25.70;;;10.50;;
84303;SDS011;74469;52.520;16.998;2023-12-04T10:59:27;26.20;;;11.40;;
84303;SDS011;74469;52.520;16.998;2023-12-04T11:02:00;33.50;;;13.20;;
84303;SDS011;74469;52.520;16.998;2023-12-04T11:04:30;27.60;;;12.90;;
84303;SDS011;74469;52.520;16.998;2023-12-04T11:06:59;18.80;;;9.70;;
84303;SDS011;74469;52.520;16.998;2023-12-04T11:09:31;21.60;;;9.90;;
84303;SDS011;74469;52.520;16.998;2023-12-04T11:12:04;29.90;;;12.80;;
84303;SDS011;74469;52.520;16.998;2023-12-04T11:17:14;22.30;;;10.20;;
84303;SDS011;74469;52.520;16.998;2023-12-04T11:19:47;23.30;;;9.60;;
84303;SDS011;74469;52.520;16.998;2023-12-04T11:22:23;27.30;;;12.00;;
84303;SDS011;74469;52.520;16.998;2023-12-04T11:24:52;25.20;;;11.70;;
84303;SDS011;74469;52.520;16.998;2023-12-04T11:27:20;21.60;;;10.70;;
84303;SDS011;74469;52.520;16.998;2023-12-04T11:29:48;20.90;;;10.90;;
84303;SDS011;74469;52.520;16.998;2023-12-04T11:32:17;20.40;;;9.60;;
84303;SDS011;74469;52.520;16.998;2023-12-04T11:34:54;18.90;;;9.30;;
84303;SDS011;74469;52.520;16.998;2023-12-04T11:37:23;16.50;;;9.00;;
84303;SDS011;74469;52.520;16.998;2023-12-04T11:39:51;26.60;;;13.70;;
84303;SDS011;74469;52.520;16.998;2023-12-04T11:42:22;28.20;;;12.70;;
84303;SDS011;74469;52.520;16.998;2023-12-04T11:44:57;25.50;;;10.90;;
84303;SDS011;74469;52.520;16.998;2023-12-04T11:47:27;23.50;;;11.20;;
84303;SDS011;74469;52.520;16.998;2023-12-04T11:49:57;25.70;;;11.30;;
84303;SDS011;74469;52.520;16.998;2023-12-04T11:52:33;19.80;;;9.40;;
84303;SDS011;74469;52.520;16.998;2023-12-04T11:55:04;21.30;;;9.50;;
84303;SDS011;74469;52.520;16.998;2023-12-04T11:57:36;20.10;;;9.10;;
84303;SDS011;74469;52.520;16.998;2023-12-04T12:05:23;21.50;;;9.70;;
84303;SDS011;74469;52.520;16.998;2023-12-04T12:07:51;26.60;;;11.40;;
84303;SDS011;74469;52.520;16.998;2023-12-04T12:10:19;25.20;;;11.40;;
84303;SDS011;74469;52.520;16.998;2023-12-04T12:12:47;25.20;;;11.00;;
84303;SDS011;74469;52.520;16.998;2023-12-04T12:15:15;25.80;;;10.70;;
84303;SDS011;74469;52.520;16.998;2023-12-04T12:17:42;23.40;;;9.80;;
84303;SDS011;74469;52.520;16.998;2023-12-04T12:20:11;26.60;;;12.00;;
84303;SDS011;74469;52.520;16.998;2023-12-04T12:22:39;25.80;;;12.50;;
84303;SDS011;74469;52.520;16.998;2023-12-04T12:25:09;21.60;;;11.40;;
84303;SDS011;74469;52.520;16.998;2023-12-04T12:27:38;24.40;;;12.70;;
84303;SDS011;74469;52.520;16.998;2023-12-04T12:30:06;23.10;;;11.90;;
84303;SDS011;74469;52.520;16.998;2023-12-04T12:32:34;24.60;;;13.40;;
84303;SDS011;74469;52.520;16.998;2023-12-04T12:35:03;25.70;;;12.90;;
84303;SDS011;74469;52.520;16.998;2023-12-04T12:37:31;34.30;;;17.20;;
84303;SDS011;74469;52.520;16.998;2023-12-04T12:39:58;31.70;;;15.70;;
84303;SDS011;74469;52.520;16.998;2023-12-04T12:42:27;32.60;;;16.30;;
84303;SDS011;74469;52.520;16.998;2023-12-04T12:44:56;32.60;;;16.70;;
84303;SDS011;74469;52.520;16.998;2023-12-04T12:47:27;30.00;;;14.70;;
84303;SDS011;74469;52.520;16.998;2023-12-04T12:49:55;37.70;;;16.60;;
84303;SDS011;74469;52.520;16.998;2023-12-04T12:52:22;24.70;;;13.70;;
84303;SDS011;74469;52.520;16.998;2023-12-04T12:54:50;36.60;;;18.30;;
84303;SDS011;74469;52.520;16.998;2023-12-04T12:57:19;32.00;;;15.80;;
84303;SDS011;74469;52.520;16.998;2023-12-04T12:59:47;38.00;;;17.20;;
84303;SDS011;74469;52.520;16.998;2023-12-04T13:02:15;36.90;;;18.80;;
84303;SDS011;74469;52.520;16.998;2023-12-04T13:04:44;33.70;;;14.90;;
84303;SDS011;74469;52.520;16.998;2023-12-04T13:07:11;41.60;;;19.60;;
84303;SDS011;74469;52.520;16.998;2023-12-04T13:09:39;37.10;;;18.70;;
84303;SDS011;74469;52.520;16.998;2023-12-04T13:12:07;42.50;;;19.70;;
84303;SDS011;74469;52.520;16.998;2023-12-04T13:14:36;36.90;;;16.10;;
84303;SDS011;74469;52.520;16.998;2023-12-04T13:17:04;35.70;;;17.00;;
84303;SDS011;74469;52.520;16.998;2023-12-04T13:19:32;37.00;;;15.90;;
84303;SDS011;74469;52.520;16.998;2023-12-04T13:22:01;42.20;;;18.10;;
84303;SDS011;74469;52.520;16.998;2023-12-04T13:24:31;38.50;;;16.60;;
84303;SDS011;74469;52.520;16.998;2023-12-04T13:26:59;27.90;;;14.70;;
84303;SDS011;74469;52.520;16.998;2023-12-04T13:29:26;37.00;;;16.20;;
84303;SDS011;74469;52.520;16.998;2023-12-04T13:31:54;25.00;;;11.70;;
84303;SDS011;74469;52.520;16.998;2023-12-04T13:34:22;25.10;;;14.00;;
84303;SDS011;74469;52.520;16.998;2023-12-04T13:36:49;33.80;;;16.60;;
84303;SDS011;74469;52.520;16.998;2023-12-04T13:39:17;33.90;;;13.60;;
84303;SDS011;74469;52.520;16.998;2023-12-04T13:41:50;32.70;;;13.70;;
84303;SDS011;74469;52.520;16.998;2023-12-04T13:44:36;36.80;;;18.20;;
84303;SDS011;74469;52.520;16.998;2023-12-04T13:47:04;37.80;;;16.80;;
84303;SDS011;74469;52.520;16.998;2023-12-04T13:49:32;26.70;;;12.60;;
84303;SDS011;74469;52.520;16.998;2023-12-04T13:52:00;23.80;;;12.30;;
84303;SDS011;74469;52.520;16.998;2023-12-04T13:54:28;28.30;;;11.80;;
84303;SDS011;74469;52.520;16.998;2023-12-04T13:57:11;29.00;;;14.00;;
84303;SDS011;74469;52.520;16.998;2023-12-04T13:59:46;37.10;;;17.70;;
84303;SDS011;74469;52.520;16.998;2023-12-04T14:02:14;35.60;;;14.30;;
84303;SDS011;74469;52.520;16.998;2023-12-04T14:04:42;37.00;;;17.00;;
84303;SDS011;74469;52.520;16.998;2023-12-04T14:07:10;47.60;;;21.00;;
84303;SDS011;74469;52.520;16.998;2023-12-04T14:09:39;31.80;;;16.10;;
84303;SDS011;74469;52.520;16.998;2023-12-04T14:12:07;33.30;;;15.00;;
84303;SDS011;74469;52.520;16.998;2023-12-04T14:14:36;23.60;;;10.70;;
84303;SDS011;74469;52.520;16.998;2023-12-04T14:17:04;31.60;;;12.80;;
84303;SDS011;74469;52.520;16.998;2023-12-04T14:19:34;27.30;;;12.00;;
84303;SDS011;74469;52.520;16.998;2023-12-04T14:22:02;29.80;;;14.70;;
84303;SDS011;74469;52.520;16.998;2023-12-04T14:24:30;32.30;;;14.00;;
84303;SDS011;74469;52.520;16.998;2023-12-04T14:26:58;27.40;;;12.60;;
84303;SDS011;74469;52.520;16.998;2023-12-04T14:29:26;26.10;;;12.10;;
84303;SDS011;74469;52.520;16.998;2023-12-04T14:31:53;33.50;;;13.80;;
84303;SDS011;74469;52.520;16.998;2023-12-04T14:34:21;28.00;;;11.50;;